Time;durP1;ratioP1;P1;durP2;ratioP2;P2;SDS_P1;SDS_P2;PMS_P1;PMS_P2;Temp;Humidity;BMP_temperature;BMP_pressure;BME280_temperature;BME280_humidity;BME280_pressure;Samples;Min_cycle;Max_cycle;Signal;HPM_P1;HPM_P2
2023/12/21 00:00:56;;;;;;;13.60;12.18;;;;;;;;;;10028046;28;20392;-76
2023/12/21 00:05:48;;;;;;;13.57;12.10;;;;;;;;;;10027313;28;20077;-77
2023/12/21 00:10:40;;;;;;;12.23;9.90;;;;;;;;;;10026641;28;20443;-77
2023/12/21 00:15:32;;;;;;;16.00;11.95;;;;;;;;;;10028148;28;20048;-76
2023/12/21 00:20:24;;;;;;;11.35;10.23;;;;;;;;;;10025736;28;20152;-77
2023/12/21 00:25:16;;;;;;;11.68;10.30;;;;;;;;;;10025889;28;20045;-76
2023/12/21 00:30:09;;;;;;;11.82;10.57;;;;;;;;;;10026075;28;20121;-76
2023/12/21 00:35:01;;;;;;;12.85;10.35;;;;;;;;;;10026116;28;20046;-76
2023/12/21 00:39:53;;;;;;;13.13;10.38;;;;;;;;;;10025488;28;20049;-77
2023/12/21 00:44:46;;;;;;;11.80;10.30;;;;;;;;;;10025390;28;20452;-77
2023/12/21 00:49:38;;;;;;;11.77;10.57;;;;;;;;;;10025291;28;20473;-77
2023/12/21 00:54:29;;;;;;;13.85;11.40;;;;;;;;;;10024447;28;20123;-76
2023/12/21 00:59:21;;;;;;;12.80;11.25;;;;;;;;;;10025464;28;20049;-76
2023/12/21 01:04:13;;;;;;;12.18;9.57;;;;;;;;;;10024830;28;20085;-76
2023/12/21 01:09:05;;;;;;;12.95;11.35;;;;;;;;;;10011973;28;20077;-76
2023/12/21 01:13:57;;;;;;;12.18;10.27;;;;;;;;;;10025471;28;20074;-76
2023/12/21 01:18:49;;;;;;;13.00;10.40;;;;;;;;;;10013015;28;20050;-77
2023/12/21 01:23:40;;;;;;;15.20;10.90;;;;;;;;;;10023996;28;20108;-77
2023/12/21 01:28:32;;;;;;;14.88;12.75;;;;;;;;;;10024805;28;20433;-77
2023/12/21 01:33:24;;;;;;;12.85;11.27;;;;;;;;;;10023513;28;20053;-76
2023/12/21 01:38:16;;;;;;;14.30;10.88;;;;;;;;;;10024077;28;20181;-76
2023/12/21 01:43:08;;;;;;;13.27;10.88;;;;;;;;;;10035593;28;20151;-76
2023/12/21 01:48:01;;;;;;;11.45;10.25;;;;;;;;;;10036897;28;20369;-76
2023/12/21 01:52:56;;;;;;;12.98;10.65;;;;;;;;;;10036730;28;20052;-77
2023/12/21 01:57:48;;;;;;;12.45;11.15;;;;;;;;;;10037137;28;20074;-77
2023/12/21 02:02:40;;;;;;;14.57;11.65;;;;;;;;;;10037362;28;20046;-77
2023/12/21 02:07:32;;;;;;;12.73;11.43;;;;;;;;;;10036647;28;20052;-77
2023/12/21 02:12:24;;;;;;;16.48;13.77;;;;;;;;;;10035602;28;20042;-76
2023/12/21 02:17:18;;;;;;;18.15;14.25;;;;;;;;;;10036263;28;20504;-77
2023/12/21 02:22:10;;;;;;;16.50;13.20;;;;;;;;;;10014192;28;20069;-77
2023/12/21 02:27:03;;;;;;;13.82;12.60;;;;;;;;;;10013633;28;20101;-76
2023/12/21 02:31:55;;;;;;;14.25;12.82;;;;;;;;;;9998503;28;20473;-76
2023/12/21 02:36:47;;;;;;;17.08;15.32;;;;;;;;;;9998670;28;20090;-76
2023/12/21 02:41:38;;;;;;;18.88;14.25;;;;;;;;;;10007617;28;20057;-76
2023/12/21 02:46:31;;;;;;;18.20;15.63;;;;;;;;;;9998191;28;20051;-77
2023/12/21 02:51:23;;;;;;;23.70;18.65;;;;;;;;;;10000766;28;20098;-77
2023/12/21 02:56:15;;;;;;;21.65;14.32;;;;;;;;;;9993033;28;20100;-76
2023/12/21 03:01:07;;;;;;;15.98;14.27;;;;;;;;;;9993346;28;20078;-77
2023/12/21 03:05:59;;;;;;;19.15;13.00;;;;;;;;;;9994458;28;20050;-76
2023/12/21 03:10:51;;;;;;;16.20;13.55;;;;;;;;;;10005691;28;20165;-77
2023/12/21 03:15:43;;;;;;;17.63;14.93;;;;;;;;;;9992683;28;20370;-77
2023/12/21 03:20:35;;;;;;;17.27;14.43;;;;;;;;;;9991596;28;20141;-76
2023/12/21 03:25:27;;;;;;;16.08;13.43;;;;;;;;;;9992838;28;20129;-76
2023/12/21 03:30:19;;;;;;;18.25;14.43;;;;;;;;;;9991168;28;20043;-77
2023/12/21 03:35:11;;;;;;;18.00;13.73;;;;;;;;;;9992744;28;20061;-77
2023/12/21 03:40:03;;;;;;;14.82;12.20;;;;;;;;;;9992335;28;20046;-77
2023/12/21 03:44:55;;;;;;;15.02;12.40;;;;;;;;;;9990315;28;20057;-77
2023/12/21 03:49:47;;;;;;;14.75;12.85;;;;;;;;;;9990631;28;20042;-76
2023/12/21 03:54:39;;;;;;;13.07;11.45;;;;;;;;;;9991973;28;20457;-76
2023/12/21 03:59:31;;;;;;;16.02;11.32;;;;;;;;;;9999937;28;20073;-77
2023/12/21 04:04:23;;;;;;;14.30;10.18;;;;;;;;;;9989888;28;20082;-77
2023/12/21 04:09:19;;;;;;;11.50;10.07;;;;;;;;;;9992053;28;20081;-76
2023/12/21 04:14:11;;;;;;;10.55;8.60;;;;;;;;;;9989961;28;20469;-76
2023/12/21 04:19:03;;;;;;;11.05;9.95;;;;;;;;;;9989759;28;20172;-77
2023/12/21 04:23:56;;;;;;;11.02;9.88;;;;;;;;;;9988905;28;20363;-77
2023/12/21 04:28:49;;;;;;;8.65;7.85;;;;;;;;;;9988188;28;20052;-77
2023/12/21 04:33:41;;;;;;;9.77;8.23;;;;;;;;;;9991732;28;20105;-77
2023/12/21 04:38:33;;;;;;;10.93;8.43;;;;;;;;;;9990376;28;20061;-76
2023/12/21 04:43:25;;;;;;;9.55;7.63;;;;;;;;;;9988499;28;20130;-77
2023/12/21 04:48:17;;;;;;;8.55;7.35;;;;;;;;;;9987769;28;20054;-77
2023/12/21 04:53:09;;;;;;;9.10;8.07;;;;;;;;;;9998345;28;20413;-76
2023/12/21 04:58:01;;;;;;;9.43;8.40;;;;;;;;;;9988161;28;20132;-77
2023/12/21 05:02:53;;;;;;;8.10;7.18;;;;;;;;;;9988385;28;20070;-77
2023/12/21 05:07:45;;;;;;;7.22;6.53;;;;;;;;;;9986570;28;20159;-76
2023/12/21 05:12:36;;;;;;;10.43;9.13;;;;;;;;;;9989026;28;20046;-75
2023/12/21 05:17:28;;;;;;;8.02;7.22;;;;;;;;;;9987790;28;20133;-74
2023/12/21 05:22:20;;;;;;;9.27;8.45;;;;;;;;;;10001024;28;20034;-77
2023/12/21 05:27:12;;;;;;;8.23;7.20;;;;;;;;;;9986493;28;20100;-77
2023/12/21 05:32:04;;;;;;;8.50;7.10;;;;;;;;;;9988190;28;20050;-78
2023/12/21 05:36:57;;;;;;;17.30;13.57;;;;;;;;;;9987616;28;20093;-78
2023/12/21 05:41:49;;;;;;;21.15;19.00;;;;;;;;;;9986976;28;20098;-77
2023/12/21 05:46:42;;;;;;;21.70;17.88;;;;;;;;;;9986391;28;20062;-78
2023/12/21 05:51:34;;;;;;;8.55;7.63;;;;;;;;;;9987098;28;20038;-75
2023/12/21 05:56:27;;;;;;;47.45;36.03;;;;;;;;;;10004763;28;20049;-77
2023/12/21 06:01:19;;;;;;;24.42;21.85;;;;;;;;;;10020576;28;20046;-76
2023/12/21 06:06:13;;;;;;;10.80;9.73;;;;;;;;;;10020346;28;20088;-78
2023/12/21 06:11:06;;;;;;;12.45;10.10;;;;;;;;;;10016404;28;20112;-77
2023/12/21 06:15:58;;;;;;;12.57;10.30;;;;;;;;;;10014421;28;20050;-77
2023/12/21 06:20:50;;;;;;;8.27;7.32;;;;;;;;;;10011003;28;20457;-74
2023/12/21 06:25:42;;;;;;;9.02;7.85;;;;;;;;;;10014688;28;20057;-76
2023/12/21 06:30:33;;;;;;;14.88;11.88;;;;;;;;;;10030091;28;20046;-76
2023/12/21 06:35:25;;;;;;;14.15;12.70;;;;;;;;;;10030127;28;20384;-76
2023/12/21 06:40:17;;;;;;;16.65;11.93;;;;;;;;;;10029763;28;20076;-76
2023/12/21 06:45:11;;;;;;;13.70;12.00;;;;;;;;;;10029288;28;20457;-76
2023/12/21 06:50:03;;;;;;;21.20;15.50;;;;;;;;;;10029847;28;20121;-76
2023/12/21 06:54:56;;;;;;;16.60;11.88;;;;;;;;;;10029563;28;20045;-76
2023/12/21 06:59:49;;;;;;;20.45;18.20;;;;;;;;;;10028556;28;20057;-77
2023/12/21 07:04:41;;;;;;;16.85;12.77;;;;;;;;;;10028630;28;20056;-76
2023/12/21 07:09:32;;;;;;;12.55;10.85;;;;;;;;;;10028605;28;20065;-77
2023/12/21 07:14:24;;;;;;;20.52;16.52;;;;;;;;;;10015044;28;20074;-76
2023/12/21 07:19:16;;;;;;;22.38;16.52;;;;;;;;;;10021319;28;20042;-76
2023/12/21 07:24:09;;;;;;;21.40;16.02;;;;;;;;;;10033939;28;20113;-76
2023/12/21 07:29:01;;;;;;;58.38;33.05;;;;;;;;;;10025326;28;20150;-77
2023/12/21 07:33:53;;;;;;;27.45;13.95;;;;;;;;;;10026507;28;20133;-76
2023/12/21 07:38:45;;;;;;;27.08;16.40;;;;;;;;;;10024937;28;20058;-77
2023/12/21 07:43:38;;;;;;;48.22;27.75;;;;;;;;;;10026845;28;20076;-76
2023/12/21 07:48:32;;;;;;;18.75;12.40;;;;;;;;;;10026460;28;20129;-78
2023/12/21 07:53:24;;;;;;;10.77;7.50;;;;;;;;;;10027209;28;20038;-75
2023/12/21 07:58:16;;;;;;;9.32;6.95;;;;;;;;;;10026524;28;20520;-75
2023/12/21 08:03:08;;;;;;;10.18;7.13;;;;;;;;;;10026784;28;20081;-75
2023/12/21 08:08:00;;;;;;;9.18;7.93;;;;;;;;;;10026439;28;20050;-75
2023/12/21 08:12:52;;;;;;;7.57;6.80;;;;;;;;;;10026096;28;20038;-75
2023/12/21 08:17:44;;;;;;;7.93;7.22;;;;;;;;;;10024656;28;20422;-75
2023/12/21 08:22:37;;;;;;;7.82;7.10;;;;;;;;;;10026030;28;20045;-75
2023/12/21 08:27:29;;;;;;;9.07;7.90;;;;;;;;;;10009834;28;20553;-75
2023/12/21 08:32:21;;;;;;;8.43;7.35;;;;;;;;;;10025428;28;20133;-75
2023/12/21 08:37:12;;;;;;;12.38;11.05;;;;;;;;;;10025143;28;20068;-75
2023/12/21 08:42:06;;;;;;;11.15;9.80;;;;;;;;;;10024574;28;20058;-78
2023/12/21 08:46:57;;;;;;;12.35;11.13;;;;;;;;;;10024419;28;20053;-75
2023/12/21 08:51:52;;;;;;;12.95;10.88;;;;;;;;;;10024229;28;20049;-75
2023/12/21 08:56:44;;;;;;;15.85;12.65;;;;;;;;;;10024351;28;20050;-75
2023/12/21 09:01:37;;;;;;;14.07;12.18;;;;;;;;;;10025005;28;20050;-75
2023/12/21 09:06:29;;;;;;;20.65;14.45;;;;;;;;;;10024027;28;20050;-75
2023/12/21 09:11:21;;;;;;;19.45;17.45;;;;;;;;;;10022828;28;20346;-75
2023/12/21 09:16:14;;;;;;;17.42;14.88;;;;;;;;;;10024530;28;20042;-75
2023/12/21 09:21:06;;;;;;;15.98;14.35;;;;;;;;;;10023742;28;20034;-75
2023/12/21 09:25:58;;;;;;;14.80;12.93;;;;;;;;;;10023322;28;20042;-75
2023/12/21 09:30:50;;;;;;;13.35;10.27;;;;;;;;;;10023350;28;20112;-75
2023/12/21 09:35:42;;;;;;;11.95;10.68;;;;;;;;;;10023903;28;20480;-75
2023/12/21 09:40:34;;;;;;;12.38;10.90;;;;;;;;;;10023509;28;20463;-75
2023/12/21 09:45:29;;;;;;;12.48;11.18;;;;;;;;;;10023411;28;20046;-77
2023/12/21 09:50:22;;;;;;;12.52;9.38;;;;;;;;;;10021130;28;20378;-74
2023/12/21 09:55:15;;;;;;;12.25;9.52;;;;;;;;;;10021148;28;20112;-75
2023/12/21 10:00:09;;;;;;;12.20;8.05;;;;;;;;;;10022076;28;20042;-77
2023/12/21 10:05:04;;;;;;;6.63;5.88;;;;;;;;;;10021871;28;20057;-74
2023/12/21 10:09:57;;;;;;;8.20;7.32;;;;;;;;;;10027613;28;20058;-74
2023/12/21 10:14:58;;;;;;;10.45;7.43;;;;;;;;;;10030159;28;20065;-74
2023/12/21 10:19:51;;;;;;;10.23;7.93;;;;;;;;;;10029966;28;20057;-78
2023/12/21 10:24:43;;;;;;;17.38;8.18;;;;;;;;;;10029453;28;20516;-77
2023/12/21 10:29:35;;;;;;;11.43;7.00;;;;;;;;;;10029193;28;20042;-74
2023/12/21 10:34:26;;;;;;;9.70;7.50;;;;;;;;;;10029286;28;20042;-74
2023/12/21 10:39:22;;;;;;;10.23;8.52;;;;;;;;;;10028768;28;20053;-74
2023/12/21 10:44:15;;;;;;;13.98;10.00;;;;;;;;;;10029375;28;20050;-75
2023/12/21 10:49:11;;;;;;;11.15;9.60;;;;;;;;;;10027754;28;20103;-75
2023/12/21 10:54:06;;;;;;;13.18;11.07;;;;;;;;;;10028496;28;20389;-75
2023/12/21 10:59:01;;;;;;;12.18;10.90;;;;;;;;;;10028597;28;20054;-75
2023/12/21 11:03:53;;;;;;;12.90;10.45;;;;;;;;;;10028546;28;20380;-74
2023/12/21 11:08:46;;;;;;;13.55;11.48;;;;;;;;;;10028130;28;20049;-74
2023/12/21 11:13:42;;;;;;;11.23;9.70;;;;;;;;;;10027978;28;20133;-75
2023/12/21 11:18:35;;;;;;;15.70;11.40;;;;;;;;;;10026386;28;20045;-78
2023/12/21 11:23:27;;;;;;;14.65;10.75;;;;;;;;;;10027109;28;20038;-75
2023/12/21 11:28:28;;;;;;;11.98;9.60;;;;;;;;;;10027777;28;20050;-75
2023/12/21 11:33:28;;;;;;;18.15;13.50;;;;;;;;;;9991341;28;20132;-78
2023/12/21 11:38:24;;;;;;;15.52;13.93;;;;;;;;;;10000017;28;20042;-78
2023/12/21 11:43:22;;;;;;;14.48;12.98;;;;;;;;;;9990956;28;20054;-78
2023/12/21 11:48:17;;;;;;;16.83;13.23;;;;;;;;;;9988936;28;20863;-75
2023/12/21 11:53:10;;;;;;;16.50;14.85;;;;;;;;;;9993274;28;20408;-75
2023/12/21 11:58:26;;;;;;;19.30;17.23;;;;;;;;;;9990091;28;20528;-75
2023/12/21 12:03:19;;;;;;;21.02;15.65;;;;;;;;;;9990611;28;20046;-78
2023/12/21 12:08:11;;;;;;;20.33;17.20;;;;;;;;;;9988329;28;20048;-78
2023/12/21 12:13:04;;;;;;;19.60;17.00;;;;;;;;;;9988629;28;20077;-77
2023/12/21 12:17:55;;;;;;;21.25;17.90;;;;;;;;;;9990271;28;20466;-72
2023/12/21 12:22:51;;;;;;;19.90;17.90;;;;;;;;;;9995172;28;20493;-70
2023/12/21 12:27:46;;;;;;;20.27;17.98;;;;;;;;;;10024601;28;20057;-70
2023/12/21 12:32:38;;;;;;;20.50;17.42;;;;;;;;;;10026174;28;20046;-70
2023/12/21 12:37:31;;;;;;;22.15;17.50;;;;;;;;;;10024530;28;20129;-70
2023/12/21 12:42:22;;;;;;;22.52;18.55;;;;;;;;;;10025326;28;20076;-70
2023/12/21 12:47:14;;;;;;;21.77;19.50;;;;;;;;;;10024451;28;20111;-70
2023/12/21 12:52:10;;;;;;;23.45;19.55;;;;;;;;;;10025385;28;20056;-70
2023/12/21 12:57:03;;;;;;;25.33;20.50;;;;;;;;;;10024666;28;20053;-70
2023/12/21 13:01:55;;;;;;;27.20;21.70;;;;;;;;;;10024633;28;20054;-70
2023/12/21 13:06:49;;;;;;;25.15;21.48;;;;;;;;;;10022519;28;20050;-70
2023/12/21 13:11:41;;;;;;;32.60;24.20;;;;;;;;;;10025076;28;20082;-70
2023/12/21 13:16:33;;;;;;;29.92;25.95;;;;;;;;;;10024284;28;20049;-70
2023/12/21 13:21:25;;;;;;;29.08;25.40;;;;;;;;;;10023067;28;20121;-70
2023/12/21 13:26:17;;;;;;;27.25;24.35;;;;;;;;;;10023223;28;20049;-70
2023/12/21 13:31:10;;;;;;;28.33;24.40;;;;;;;;;;10023257;28;20046;-70
2023/12/21 13:36:03;;;;;;;28.52;25.48;;;;;;;;;;10023054;28;20112;-70
2023/12/21 13:40:55;;;;;;;32.40;27.95;;;;;;;;;;10022101;28;20058;-70
2023/12/21 13:45:47;;;;;;;30.05;25.55;;;;;;;;;;10022955;28;20038;-70
2023/12/21 13:50:39;;;;;;;28.73;25.77;;;;;;;;;;10022803;28;20050;-70
2023/12/21 13:55:31;;;;;;;42.42;26.05;;;;;;;;;;10020415;28;20461;-71
2023/12/21 14:00:23;;;;;;;28.30;25.25;;;;;;;;;;10019711;28;20038;-71
2023/12/21 14:05:19;;;;;;;26.58;23.75;;;;;;;;;;10022116;28;20139;-70
2023/12/21 14:10:11;;;;;;;28.67;25.30;;;;;;;;;;10021795;28;20483;-70
2023/12/21 14:15:04;;;;;;;28.70;24.38;;;;;;;;;;10021960;28;20133;-70
2023/12/21 14:19:56;;;;;;;29.80;26.42;;;;;;;;;;10022781;28;20468;-71
2023/12/21 14:24:48;;;;;;;30.15;25.90;;;;;;;;;;10021927;28;20473;-72
2023/12/21 14:29:41;;;;;;;36.83;30.67;;;;;;;;;;10022454;28;20050;-71
2023/12/21 14:34:33;;;;;;;30.90;27.15;;;;;;;;;;10022285;28;20064;-72
2023/12/21 14:39:25;;;;;;;31.77;28.42;;;;;;;;;;10022562;28;20126;-72
2023/12/21 14:44:17;;;;;;;36.50;28.33;;;;;;;;;;10021743;28;20448;-71
2023/12/21 14:49:09;;;;;;;29.58;26.50;;;;;;;;;;10025892;28;20144;-71
2023/12/21 14:54:02;;;;;;;39.10;31.52;;;;;;;;;;10029062;28;20084;-71
2023/12/21 14:58:54;;;;;;;43.92;36.72;;;;;;;;;;10028743;28;20054;-71
2023/12/21 15:03:46;;;;;;;38.15;32.28;;;;;;;;;;10039719;28;20069;-71
2023/12/21 15:08:38;;;;;;;32.55;28.35;;;;;;;;;;10023659;28;20424;-71
2023/12/21 15:13:31;;;;;;;29.42;25.23;;;;;;;;;;10027354;28;20046;-71
2023/12/21 15:18:23;;;;;;;32.58;28.25;;;;;;;;;;10027334;28;20137;-71
2023/12/21 15:23:15;;;;;;;30.95;26.35;;;;;;;;;;10027847;28;20089;-71
2023/12/21 15:28:07;;;;;;;36.20;29.35;;;;;;;;;;10027455;28;20078;-71
2023/12/21 15:32:59;;;;;;;29.70;25.98;;;;;;;;;;10027002;28;20092;-71
2023/12/21 15:37:51;;;;;;;34.92;29.75;;;;;;;;;;10026694;28;20522;-71
2023/12/21 15:42:44;;;;;;;55.95;43.03;;;;;;;;;;10024168;28;20345;-71
2023/12/21 15:47:41;;;;;;;39.17;35.20;;;;;;;;;;10024405;28;20056;-71
2023/12/21 15:52:33;;;;;;;39.78;35.72;;;;;;;;;;10023371;28;20380;-70
2023/12/21 15:57:28;;;;;;;25.90;23.05;;;;;;;;;;10023385;28;20042;-72
2023/12/21 16:02:20;;;;;;;18.63;16.55;;;;;;;;;;10023237;28;20042;-71
2023/12/21 16:07:12;;;;;;;21.45;17.83;;;;;;;;;;10026205;28;20100;-71
2023/12/21 16:12:04;;;;;;;26.77;23.95;;;;;;;;;;10025893;28;20061;-71
2023/12/21 16:16:57;;;;;;;21.42;18.80;;;;;;;;;;10026680;28;20140;-72
2023/12/21 16:21:49;;;;;;;23.00;20.52;;;;;;;;;;10025421;28;20445;-72
2023/12/21 16:26:42;;;;;;;22.10;19.83;;;;;;;;;;10025648;28;20461;-69
2023/12/21 16:31:35;;;;;;;25.58;21.67;;;;;;;;;;10025698;28;20100;-69
2023/12/21 16:36:27;;;;;;;44.90;40.05;;;;;;;;;;10025342;28;20145;-72
2023/12/21 16:41:19;;;;;;;46.55;37.22;;;;;;;;;;10024109;28;20480;-69
2023/12/21 16:46:11;;;;;;;38.60;33.90;;;;;;;;;;10023552;28;20053;-72
2023/12/21 16:51:03;;;;;;;20.13;16.90;;;;;;;;;;10022015;28;20057;-69
2023/12/21 16:55:56;;;;;;;23.02;18.30;;;;;;;;;;10023276;28;20038;-69
2023/12/21 17:00:51;;;;;;;14.95;13.45;;;;;;;;;;10023527;28;20045;-70
2023/12/21 17:05:43;;;;;;;14.90;13.40;;;;;;;;;;10024257;28;20041;-69
2023/12/21 17:10:35;;;;;;;22.58;20.20;;;;;;;;;;10023175;28;20381;-70
2023/12/21 17:15:31;;;;;;;13.80;10.63;;;;;;;;;;10019658;28;20048;-71
2023/12/21 17:20:25;;;;;;;11.30;10.20;;;;;;;;;;10015109;28;20045;-71
2023/12/21 17:25:17;;;;;;;12.93;11.23;;;;;;;;;;10014458;28;20038;-71
2023/12/21 17:30:10;;;;;;;12.05;10.60;;;;;;;;;;10023528;28;20045;-72
2023/12/21 17:35:02;;;;;;;13.18;10.82;;;;;;;;;;10022569;28;20133;-71
2023/12/21 17:39:54;;;;;;;10.88;9.60;;;;;;;;;;10016356;28;20354;-72
2023/12/21 17:44:46;;;;;;;14.65;12.18;;;;;;;;;;10022902;28;20133;-71
2023/12/21 17:49:38;;;;;;;12.50;11.20;;;;;;;;;;10023200;28;20048;-72
2023/12/21 17:54:30;;;;;;;16.13;10.73;;;;;;;;;;10021716;28;20046;-69
2023/12/21 17:59:22;;;;;;;10.02;8.35;;;;;;;;;;10021943;28;20068;-70
2023/12/21 18:04:14;;;;;;;13.23;8.93;;;;;;;;;;10023396;28;20440;-69
2023/12/21 18:09:08;;;;;;;23.85;19.75;;;;;;;;;;10022467;28;20481;-69
2023/12/21 18:13:59;;;;;;;50.35;41.22;;;;;;;;;;10011933;28;20141;-69
2023/12/21 18:18:51;;;;;;;12.57;9.32;;;;;;;;;;10004141;28;20057;-70
2023/12/21 18:23:43;;;;;;;15.05;10.77;;;;;;;;;;10007372;28;20050;-70
2023/12/21 18:28:36;;;;;;;12.02;8.50;;;;;;;;;;10026041;28;20161;-70
2023/12/21 18:33:28;;;;;;;10.90;7.72;;;;;;;;;;10017841;28;20091;-69
2023/12/21 18:38:20;;;;;;;17.73;11.57;;;;;;;;;;10023872;28;20042;-69
2023/12/21 18:43:14;;;;;;;68.95;47.63;;;;;;;;;;10029293;28;20092;-70
2023/12/21 18:48:06;;;;;;;18.90;12.77;;;;;;;;;;10027839;28;20045;-72
2023/12/21 18:52:59;;;;;;;12.48;9.70;;;;;;;;;;10028641;28;20044;-69
2023/12/21 18:57:51;;;;;;;21.23;14.00;;;;;;;;;;10027315;28;20056;-70
2023/12/21 19:02:43;;;;;;;53.67;29.35;;;;;;;;;;10033050;28;20050;-70
2023/12/21 19:07:35;;;;;;;29.88;18.08;;;;;;;;;;10026094;28;20381;-69
2023/12/21 19:12:27;;;;;;;14.15;9.18;;;;;;;;;;10025329;28;20046;-69
2023/12/21 19:17:19;;;;;;;30.08;12.43;;;;;;;;;;10014497;28;20080;-69
2023/12/21 19:22:11;;;;;;;15.18;11.75;;;;;;;;;;10027537;28;20385;-70
2023/12/21 19:27:03;;;;;;;15.73;8.68;;;;;;;;;;10027452;28;20099;-69
2023/12/21 19:31:55;;;;;;;10.40;7.65;;;;;;;;;;10008734;28;20487;-70
2023/12/21 19:36:47;;;;;;;13.43;8.40;;;;;;;;;;10004543;28;20049;-70
2023/12/21 19:41:39;;;;;;;15.60;10.32;;;;;;;;;;10023320;28;20397;-70
2023/12/21 19:46:30;;;;;;;14.10;8.73;;;;;;;;;;9993054;28;20043;-70
2023/12/21 19:51:23;;;;;;;13.18;9.23;;;;;;;;;;10021319;28;20149;-70
2023/12/21 19:56:15;;;;;;;17.67;10.82;;;;;;;;;;10007554;28;20420;-69
2023/12/21 20:01:07;;;;;;;12.20;9.13;;;;;;;;;;10008786;28;20045;-73
2023/12/21 20:05:59;;;;;;;12.90;9.80;;;;;;;;;;10018964;28;20042;-73
2023/12/21 20:10:51;;;;;;;12.45;9.82;;;;;;;;;;10023879;28;20137;-72
2023/12/21 20:15:43;;;;;;;13.30;10.60;;;;;;;;;;10019546;28;20065;-72
2023/12/21 20:20:35;;;;;;;17.25;11.75;;;;;;;;;;10022006;28;20041;-72
2023/12/21 20:25:27;;;;;;;14.25;11.75;;;;;;;;;;10024071;28;20093;-71
2023/12/21 20:30:19;;;;;;;17.17;12.50;;;;;;;;;;10020034;28;20434;-71
2023/12/21 20:35:11;;;;;;;22.17;15.10;;;;;;;;;;10027652;28;20409;-71
2023/12/21 20:40:03;;;;;;;20.63;12.95;;;;;;;;;;10025216;28;20074;-69
2023/12/21 20:44:55;;;;;;;16.25;12.13;;;;;;;;;;10015266;28;20412;-70
2023/12/21 20:49:47;;;;;;;17.58;10.88;;;;;;;;;;10019674;28;20077;-70
2023/12/21 20:54:39;;;;;;;17.30;13.43;;;;;;;;;;10025729;28;20042;-70
2023/12/21 20:59:32;;;;;;;15.32;11.85;;;;;;;;;;10014022;28;20054;-71
2023/12/21 21:04:24;;;;;;;18.15;12.60;;;;;;;;;;10021458;28;20049;-70
2023/12/21 21:09:17;;;;;;;12.57;10.52;;;;;;;;;;10024265;28;20046;-70
2023/12/21 21:14:09;;;;;;;20.90;11.70;;;;;;;;;;10033401;28;20087;-70
2023/12/21 21:19:01;;;;;;;17.95;13.45;;;;;;;;;;10040756;28;20096;-71
2023/12/21 21:23:53;;;;;;;20.83;14.48;;;;;;;;;;10023834;28;20384;-71
2023/12/21 21:28:46;;;;;;;16.33;12.07;;;;;;;;;;10036891;28;20037;-72
2023/12/21 21:33:38;;;;;;;16.55;11.68;;;;;;;;;;10026984;28;20057;-71
2023/12/21 21:38:30;;;;;;;22.95;12.77;;;;;;;;;;10019385;28;20145;-72
2023/12/21 21:43:24;;;;;;;20.80;14.15;;;;;;;;;;10017325;28;20050;-71
2023/12/21 21:48:16;;;;;;;20.30;13.45;;;;;;;;;;10019923;28;20448;-71
2023/12/21 21:53:08;;;;;;;21.02;13.68;;;;;;;;;;10017427;28;20048;-71
2023/12/21 21:58:00;;;;;;;20.05;13.40;;;;;;;;;;10021004;28;20133;-72
2023/12/21 22:02:51;;;;;;;24.33;15.15;;;;;;;;;;10026220;28;20544;-72
2023/12/21 22:07:44;;;;;;;18.67;12.30;;;;;;;;;;10023647;28;20046;-72
2023/12/21 22:12:36;;;;;;;20.10;13.57;;;;;;;;;;10028223;28;20476;-71
2023/12/21 22:17:28;;;;;;;18.02;15.05;;;;;;;;;;10028102;28;20187;-70
2023/12/21 22:22:20;;;;;;;18.48;14.52;;;;;;;;;;10026527;28;20088;-70
2023/12/21 22:27:12;;;;;;;21.70;15.00;;;;;;;;;;10028547;28;20476;-71
2023/12/21 22:32:04;;;;;;;16.70;12.82;;;;;;;;;;10026544;28;20104;-71
2023/12/21 22:36:56;;;;;;;17.00;12.07;;;;;;;;;;10026652;28;20254;-70
2023/12/21 22:41:48;;;;;;;15.63;11.52;;;;;;;;;;10027237;28;20053;-71
2023/12/21 22:46:43;;;;;;;15.55;12.45;;;;;;;;;;10027131;28;20077;-69
2023/12/21 22:51:35;;;;;;;15.95;12.85;;;;;;;;;;10028184;28;20056;-69
2023/12/21 22:56:28;;;;;;;19.50;14.50;;;;;;;;;;10027965;28;20202;-71
2023/12/21 23:01:20;;;;;;;20.45;13.77;;;;;;;;;;10028046;28;20042;-71
2023/12/21 23:06:12;;;;;;;19.98;13.32;;;;;;;;;;10026142;28;20049;-71
2023/12/21 23:11:04;;;;;;;25.02;13.43;;;;;;;;;;10025038;28;20057;-70
2023/12/21 23:15:56;;;;;;;29.27;17.77;;;;;;;;;;10027697;28;20099;-72
2023/12/21 23:20:47;;;;;;;28.02;19.77;;;;;;;;;;10026661;28;20042;-69
2023/12/21 23:25:39;;;;;;;24.58;14.48;;;;;;;;;;10026484;28;20192;-71
2023/12/21 23:30:31;;;;;;;23.27;16.35;;;;;;;;;;10026652;28;20058;-71
2023/12/21 23:35:24;;;;;;;29.50;19.73;;;;;;;;;;10019894;28;20038;-70
2023/12/21 23:40:17;;;;;;;24.95;15.00;;;;;;;;;;10016097;28;20030;-69
2023/12/21 23:45:09;;;;;;;20.90;15.10;;;;;;;;;;10017708;28;20046;-71
2023/12/21 23:50:01;;;;;;;16.90;13.18;;;;;;;;;;10017136;28;20052;-69
2023/12/21 23:54:53;;;;;;;17.23;11.68;;;;;;;;;;10019948;28;20103;-70
2023/12/21 23:59:46;;;;;;;24.00;15.23;;;;;;;;;;10015247;28;20077;-69
